sensor_id;sensor_type;location;lat;lon;timestamp;P1;durP1;ratioP1;P2;durP2;ratioP2
45296;SDS011;31040;51.622;10.420;2023-08-06T00:01:05;3.42;;;2.17;;
45296;SDS011;31040;51.622;10.420;2023-08-06T00:03:33;2.70;;;2.50;;
45296;SDS011;31040;51.622;10.420;2023-08-06T00:06:00;2.58;;;2.30;;
45296;SDS011;31040;51.622;10.420;2023-08-06T00:08:28;3.05;;;2.75;;
45296;SDS011;31040;51.622;10.420;2023-08-06T00:10:55;2.17;;;2.08;;
45296;SDS011;31040;51.622;10.420;2023-08-06T00:13:22;2.75;;;2.30;;
45296;SDS011;31040;51.622;10.420;2023-08-06T00:15:50;3.45;;;2.03;;
45296;SDS011;31040;51.622;10.420;2023-08-06T00:18:17;2.70;;;2.50;;
45296;SDS011;31040;51.622;10.420;2023-08-06T00:20:45;2.50;;;2.30;;
45296;SDS011;31040;51.622;10.420;2023-08-06T00:23:12;2.22;;;2.03;;
45296;SDS011;31040;51.622;10.420;2023-08-06T00:25:40;2.92;;;2.50;;
45296;SDS011;31040;51.622;10.420;2023-08-06T00:28:07;2.50;;;2.30;;
45296;SDS011;31040;51.622;10.420;2023-08-06T00:30:35;3.08;;;2.55;;
45296;SDS011;31040;51.622;10.420;2023-08-06T00:33:02;2.42;;;2.30;;
45296;SDS011;31040;51.622;10.420;2023-08-06T00:35:30;2.97;;;2.65;;
45296;SDS011;31040;51.622;10.420;2023-08-06T00:37:57;2.70;;;2.47;;
45296;SDS011;31040;51.622;10.420;2023-08-06T00:40:25;4.20;;;2.58;;
45296;SDS011;31040;51.622;10.420;2023-08-06T00:42:54;2.80;;;2.08;;
45296;SDS011;31040;51.622;10.420;2023-08-06T00:45:22;2.10;;;2.00;;
45296;SDS011;31040;51.622;10.420;2023-08-06T00:47:49;2.30;;;2.03;;
45296;SDS011;31040;51.622;10.420;2023-08-06T00:50:17;3.38;;;2.92;;
45296;SDS011;31040;51.622;10.420;2023-08-06T00:52:45;2.97;;;2.70;;
45296;SDS011;31040;51.622;10.420;2023-08-06T00:55:12;3.97;;;2.47;;
45296;SDS011;31040;51.622;10.420;2023-08-06T00:57:39;3.38;;;2.65;;
45296;SDS011;31040;51.622;10.420;2023-08-06T01:00:07;5.65;;;3.03;;
45296;SDS011;31040;51.622;10.420;2023-08-06T01:02:35;3.55;;;2.70;;
45296;SDS011;31040;51.622;10.420;2023-08-06T01:05:02;3.83;;;2.40;;
45296;SDS011;31040;51.622;10.420;2023-08-06T01:13:08;3.60;;;2.67;;
45296;SDS011;31040;51.622;10.420;2023-08-06T01:15:41;3.72;;;2.60;;
45296;SDS011;31040;51.622;10.420;2023-08-06T01:18:09;3.45;;;2.50;;
45296;SDS011;31040;51.622;10.420;2023-08-06T01:20:37;2.42;;;2.22;;
45296;SDS011;31040;51.622;10.420;2023-08-06T01:23:04;3.83;;;2.58;;
45296;SDS011;31040;51.622;10.420;2023-08-06T01:28:30;2.88;;;2.33;;
45296;SDS011;31040;51.622;10.420;2023-08-06T01:31:01;2.80;;;2.50;;
45296;SDS011;31040;51.622;10.420;2023-08-06T01:33:30;2.78;;;2.45;;
45296;SDS011;31040;51.622;10.420;2023-08-06T01:35:59;2.50;;;2.30;;
45296;SDS011;31040;51.622;10.420;2023-08-06T01:38:26;3.08;;;2.47;;
45296;SDS011;31040;51.622;10.420;2023-08-06T01:40:54;3.60;;;2.60;;
45296;SDS011;31040;51.622;10.420;2023-08-06T01:43:22;2.88;;;2.58;;
45296;SDS011;31040;51.622;10.420;2023-08-06T01:45:49;2.70;;;2.25;;
45296;SDS011;31040;51.622;10.420;2023-08-06T01:48:17;2.90;;;2.60;;
45296;SDS011;31040;51.622;10.420;2023-08-06T01:50:44;2.50;;;2.30;;
45296;SDS011;31040;51.622;10.420;2023-08-06T01:53:11;3.08;;;2.25;;
45296;SDS011;31040;51.622;10.420;2023-08-06T01:55:39;3.10;;;2.50;;
45296;SDS011;31040;51.622;10.420;2023-08-06T01:58:06;2.28;;;2.13;;
45296;SDS011;31040;51.622;10.420;2023-08-06T02:00:34;2.20;;;2.10;;
45296;SDS011;31040;51.622;10.420;2023-08-06T02:03:01;2.63;;;2.20;;
45296;SDS011;31040;51.622;10.420;2023-08-06T02:05:28;4.32;;;2.50;;
45296;SDS011;31040;51.622;10.420;2023-08-06T02:07:56;5.20;;;1.90;;
45296;SDS011;31040;51.622;10.420;2023-08-06T02:10:23;2.63;;;2.25;;
45296;SDS011;31040;51.622;10.420;2023-08-06T02:12:51;4.82;;;2.55;;
45296;SDS011;31040;51.622;10.420;2023-08-06T02:15:18;2.22;;;2.08;;
45296;SDS011;31040;51.622;10.420;2023-08-06T02:17:45;2.30;;;2.10;;
45296;SDS011;31040;51.622;10.420;2023-08-06T02:20:13;2.40;;;2.05;;
45296;SDS011;31040;51.622;10.420;2023-08-06T02:22:40;2.85;;;2.03;;
45296;SDS011;31040;51.622;10.420;2023-08-06T02:25:08;2.53;;;2.33;;
45296;SDS011;31040;51.622;10.420;2023-08-06T02:27:36;3.70;;;2.10;;
45296;SDS011;31040;51.622;10.420;2023-08-06T02:30:04;2.75;;;2.15;;
45296;SDS011;31040;51.622;10.420;2023-08-06T02:32:32;2.53;;;2.33;;
45296;SDS011;31040;51.622;10.420;2023-08-06T02:35:02;2.97;;;2.22;;
45296;SDS011;31040;51.622;10.420;2023-08-06T02:37:29;2.17;;;1.98;;
45296;SDS011;31040;51.622;10.420;2023-08-06T02:39:57;2.38;;;2.17;;
45296;SDS011;31040;51.622;10.420;2023-08-06T02:42:24;2.00;;;1.90;;
45296;SDS011;31040;51.622;10.420;2023-08-06T02:44:53;2.63;;;2.20;;
45296;SDS011;31040;51.622;10.420;2023-08-06T02:47:23;3.05;;;2.30;;
45296;SDS011;31040;51.622;10.420;2023-08-06T02:49:51;4.45;;;2.33;;
45296;SDS011;31040;51.622;10.420;2023-08-06T02:52:18;4.25;;;2.70;;
45296;SDS011;31040;51.622;10.420;2023-08-06T02:54:45;3.67;;;2.22;;
45296;SDS011;31040;51.622;10.420;2023-08-06T02:57:13;2.85;;;2.50;;
45296;SDS011;31040;51.622;10.420;2023-08-06T02:59:40;2.63;;;2.42;;
45296;SDS011;31040;51.622;10.420;2023-08-06T03:02:08;2.97;;;2.50;;
45296;SDS011;31040;51.622;10.420;2023-08-06T03:04:35;3.72;;;3.42;;
45296;SDS011;31040;51.622;10.420;2023-08-06T03:07:02;4.30;;;2.80;;
45296;SDS011;31040;51.622;10.420;2023-08-06T03:09:30;3.25;;;2.92;;
45296;SDS011;31040;51.622;10.420;2023-08-06T03:11:57;3.53;;;3.03;;
45296;SDS011;31040;51.622;10.420;2023-08-06T03:14:25;3.03;;;2.70;;
45296;SDS011;31040;51.622;10.420;2023-08-06T03:16:52;2.95;;;2.75;;
45296;SDS011;31040;51.622;10.420;2023-08-06T03:19:20;2.70;;;2.50;;
45296;SDS011;31040;51.622;10.420;2023-08-06T03:21:47;3.03;;;2.83;;
45296;SDS011;31040;51.622;10.420;2023-08-06T03:24:15;3.45;;;3.15;;
45296;SDS011;31040;51.622;10.420;2023-08-06T03:26:42;3.83;;;3.10;;
45296;SDS011;31040;51.622;10.420;2023-08-06T03:29:09;4.47;;;3.03;;
45296;SDS011;31040;51.622;10.420;2023-08-06T03:31:37;3.45;;;3.03;;
45296;SDS011;31040;51.622;10.420;2023-08-06T03:34:04;2.85;;;2.65;;
45296;SDS011;31040;51.622;10.420;2023-08-06T03:36:32;3.17;;;2.88;;
45296;SDS011;31040;51.622;10.420;2023-08-06T03:39:00;3.00;;;2.65;;
45296;SDS011;31040;51.622;10.420;2023-08-06T03:41:27;2.30;;;2.17;;
45296;SDS011;31040;51.622;10.420;2023-08-06T03:43:55;2.78;;;2.30;;
45296;SDS011;31040;51.622;10.420;2023-08-06T03:46:22;2.92;;;2.58;;
45296;SDS011;31040;51.622;10.420;2023-08-06T03:48:49;3.05;;;2.40;;
45296;SDS011;31040;51.622;10.420;2023-08-06T03:51:17;2.90;;;2.50;;
45296;SDS011;31040;51.622;10.420;2023-08-06T03:53:44;2.53;;;2.20;;
45296;SDS011;31040;51.622;10.420;2023-08-06T03:56:12;3.80;;;2.45;;
45296;SDS011;31040;51.622;10.420;2023-08-06T03:58:39;3.45;;;2.38;;
45296;SDS011;31040;51.622;10.420;2023-08-06T04:01:06;2.42;;;2.22;;
45296;SDS011;31040;51.622;10.420;2023-08-06T04:03:34;4.20;;;2.92;;
45296;SDS011;31040;51.622;10.420;2023-08-06T04:06:02;5.53;;;2.92;;
45296;SDS011;31040;51.622;10.420;2023-08-06T04:08:30;3.10;;;2.85;;
45296;SDS011;31040;51.622;10.420;2023-08-06T04:10:58;4.15;;;2.70;;
45296;SDS011;31040;51.622;10.420;2023-08-06T04:13:25;7.20;;;2.78;;
45296;SDS011;31040;51.622;10.420;2023-08-06T04:15:53;2.38;;;2.17;;
45296;SDS011;31040;51.622;10.420;2023-08-06T04:18:21;2.58;;;2.38;;
45296;SDS011;31040;51.622;10.420;2023-08-06T04:20:48;3.67;;;2.72;;
45296;SDS011;31040;51.622;10.420;2023-08-06T04:23:15;3.97;;;2.92;;
45296;SDS011;31040;51.622;10.420;2023-08-06T04:25:46;5.00;;;2.80;;
45296;SDS011;31040;51.622;10.420;2023-08-06T04:28:13;5.20;;;2.95;;
45296;SDS011;31040;51.622;10.420;2023-08-06T04:30:41;3.83;;;2.60;;
45296;SDS011;31040;51.622;10.420;2023-08-06T04:33:08;4.75;;;3.28;;
45296;SDS011;31040;51.622;10.420;2023-08-06T04:35:35;3.25;;;2.95;;
45296;SDS011;31040;51.622;10.420;2023-08-06T04:38:03;5.05;;;3.42;;
45296;SDS011;31040;51.622;10.420;2023-08-06T04:40:32;3.22;;;2.83;;
45296;SDS011;31040;51.622;10.420;2023-08-06T04:43:00;7.10;;;3.15;;
45296;SDS011;31040;51.622;10.420;2023-08-06T04:45:27;5.15;;;3.17;;
45296;SDS011;31040;51.622;10.420;2023-08-06T04:47:54;3.45;;;3.15;;
45296;SDS011;31040;51.622;10.420;2023-08-06T04:50:22;3.47;;;3.05;;
45296;SDS011;31040;51.622;10.420;2023-08-06T04:52:49;4.80;;;3.45;;
45296;SDS011;31040;51.622;10.420;2023-08-06T04:55:17;4.32;;;3.22;;
45296;SDS011;31040;51.622;10.420;2023-08-06T04:57:44;4.10;;;3.42;;
45296;SDS011;31040;51.622;10.420;2023-08-06T05:00:12;3.80;;;3.50;;
45296;SDS011;31040;51.622;10.420;2023-08-06T05:02:39;4.28;;;3.88;;
45296;SDS011;31040;51.622;10.420;2023-08-06T05:05:07;4.55;;;3.50;;
45296;SDS011;31040;51.622;10.420;2023-08-06T05:07:34;4.47;;;3.45;;
45296;SDS011;31040;51.622;10.420;2023-08-06T05:10:02;3.47;;;3.17;;
45296;SDS011;31040;51.622;10.420;2023-08-06T05:12:30;3.50;;;3.20;;
45296;SDS011;31040;51.622;10.420;2023-08-06T05:14:58;4.40;;;2.92;;
45296;SDS011;31040;51.622;10.420;2023-08-06T05:17:25;3.78;;;3.33;;
45296;SDS011;31040;51.622;10.420;2023-08-06T05:19:54;4.78;;;3.42;;
45296;SDS011;31040;51.622;10.420;2023-08-06T05:22:21;4.18;;;3.78;;
45296;SDS011;31040;51.622;10.420;2023-08-06T05:24:48;3.50;;;3.20;;
45296;SDS011;31040;51.622;10.420;2023-08-06T05:27:16;4.00;;;3.47;;
45296;SDS011;31040;51.622;10.420;2023-08-06T05:29:45;5.18;;;3.72;;
45296;SDS011;31040;51.622;10.420;2023-08-06T05:32:12;4.65;;;2.83;;
45296;SDS011;31040;51.622;10.420;2023-08-06T05:34:40;3.35;;;3.05;;
45296;SDS011;31040;51.622;10.420;2023-08-06T05:37:10;3.65;;;3.10;;
45296;SDS011;31040;51.622;10.420;2023-08-06T05:39:37;3.60;;;2.80;;
45296;SDS011;31040;51.622;10.420;2023-08-06T05:42:05;3.40;;;3.10;;
45296;SDS011;31040;51.622;10.420;2023-08-06T05:44:33;3.25;;;2.72;;
45296;SDS011;31040;51.622;10.420;2023-08-06T05:47:00;4.63;;;2.80;;
45296;SDS011;31040;51.622;10.420;2023-08-06T05:49:28;3.83;;;2.80;;
45296;SDS011;31040;51.622;10.420;2023-08-06T05:51:55;5.97;;;2.88;;
45296;SDS011;31040;51.622;10.420;2023-08-06T05:54:23;4.78;;;3.45;;
45296;SDS011;31040;51.622;10.420;2023-08-06T05:56:50;5.57;;;3.30;;
45296;SDS011;31040;51.622;10.420;2023-08-06T05:59:17;6.75;;;3.40;;
45296;SDS011;31040;51.622;10.420;2023-08-06T06:01:45;3.95;;;3.60;;
45296;SDS011;31040;51.622;10.420;2023-08-06T06:04:12;3.88;;;3.22;;
45296;SDS011;31040;51.622;10.420;2023-08-06T06:06:40;4.53;;;3.22;;
45296;SDS011;31040;51.622;10.420;2023-08-06T06:09:08;3.72;;;3.00;;
45296;SDS011;31040;51.622;10.420;2023-08-06T06:11:35;3.97;;;2.92;;
45296;SDS011;31040;51.622;10.420;2023-08-06T06:14:03;3.65;;;3.35;;
45296;SDS011;31040;51.622;10.420;2023-08-06T06:16:30;5.45;;;3.22;;
45296;SDS011;31040;51.622;10.420;2023-08-06T06:18:58;3.55;;;2.95;;
45296;SDS011;31040;51.622;10.420;2023-08-06T06:21:25;4.07;;;3.70;;
45296;SDS011;31040;51.622;10.420;2023-08-06T06:23:54;4.60;;;3.53;;
45296;SDS011;31040;51.622;10.420;2023-08-06T06:26:21;3.42;;;3.13;;
45296;SDS011;31040;51.622;10.420;2023-08-06T06:28:48;2.85;;;2.65;;
45296;SDS011;31040;51.622;10.420;2023-08-06T06:31:16;8.55;;;2.95;;
45296;SDS011;31040;51.622;10.420;2023-08-06T06:33:43;3.15;;;2.85;;
45296;SDS011;31040;51.622;10.420;2023-08-06T06:36:11;4.80;;;3.35;;
45296;SDS011;31040;51.622;10.420;2023-08-06T06:38:39;3.17;;;2.88;;
45296;SDS011;31040;51.622;10.420;2023-08-06T06:41:07;3.72;;;3.13;;
45296;SDS011;31040;51.622;10.420;2023-08-06T06:43:34;3.05;;;2.78;;
45296;SDS011;31040;51.622;10.420;2023-08-06T06:46:02;5.07;;;3.72;;
45296;SDS011;31040;51.622;10.420;2023-08-06T06:48:31;3.35;;;3.00;;
45296;SDS011;31040;51.622;10.420;2023-08-06T06:50:58;3.80;;;3.38;;
45296;SDS011;31040;51.622;10.420;2023-08-06T06:53:26;3.75;;;3.45;;
45296;SDS011;31040;51.622;10.420;2023-08-06T06:56:03;3.47;;;3.10;;
45296;SDS011;31040;51.622;10.420;2023-08-06T06:58:31;3.08;;;2.72;;
45296;SDS011;31040;51.622;10.420;2023-08-06T07:00:59;3.20;;;2.97;;
45296;SDS011;31040;51.622;10.420;2023-08-06T07:03:26;2.65;;;2.45;;
45296;SDS011;31040;51.622;10.420;2023-08-06T07:05:56;2.83;;;2.63;;
45296;SDS011;31040;51.622;10.420;2023-08-06T07:08:25;3.28;;;2.63;;
45296;SDS011;31040;51.622;10.420;2023-08-06T07:10:59;2.95;;;2.67;;
45296;SDS011;31040;51.622;10.420;2023-08-06T07:13:27;2.63;;;2.42;;
45296;SDS011;31040;51.622;10.420;2023-08-06T07:15:55;3.33;;;2.60;;
45296;SDS011;31040;51.622;10.420;2023-08-06T07:18:23;4.18;;;2.60;;
45296;SDS011;31040;51.622;10.420;2023-08-06T07:20:51;2.92;;;2.22;;
45296;SDS011;31040;51.622;10.420;2023-08-06T07:23:22;2.85;;;2.17;;
45296;SDS011;31040;51.622;10.420;2023-08-06T07:25:49;2.33;;;2.13;;
45296;SDS011;31040;51.622;10.420;2023-08-06T07:28:17;3.45;;;2.50;;
45296;SDS011;31040;51.622;10.420;2023-08-06T07:30:44;2.78;;;2.58;;
45296;SDS011;31040;51.622;10.420;2023-08-06T07:33:12;2.90;;;2.38;;
45296;SDS011;31040;51.622;10.420;2023-08-06T07:35:39;3.83;;;2.75;;
45296;SDS011;31040;51.622;10.420;2023-08-06T07:38:07;2.45;;;2.25;;
45296;SDS011;31040;51.622;10.420;2023-08-06T07:40:38;2.50;;;2.30;;
45296;SDS011;31040;51.622;10.420;2023-08-06T07:43:05;5.00;;;2.60;;
45296;SDS011;31040;51.622;10.420;2023-08-06T07:45:36;2.85;;;1.90;;
45296;SDS011;31040;51.622;10.420;2023-08-06T07:48:04;2.63;;;2.17;;
45296;SDS011;31040;51.622;10.420;2023-08-06T07:50:31;3.60;;;2.40;;
45296;SDS011;31040;51.622;10.420;2023-08-06T07:52:59;2.70;;;2.50;;
45296;SDS011;31040;51.622;10.420;2023-08-06T07:55:26;2.00;;;1.90;;
45296;SDS011;31040;51.622;10.420;2023-08-06T07:57:54;2.70;;;2.50;;
45296;SDS011;31040;51.622;10.420;2023-08-06T08:00:21;5.78;;;2.53;;
45296;SDS011;31040;51.622;10.420;2023-08-06T08:02:49;2.78;;;2.22;;
45296;SDS011;31040;51.622;10.420;2023-08-06T08:05:16;2.92;;;2.22;;
45296;SDS011;31040;51.622;10.420;2023-08-06T08:07:44;2.45;;;2.25;;
45296;SDS011;31040;51.622;10.420;2023-08-06T08:10:11;3.03;;;2.17;;
45296;SDS011;31040;51.622;10.420;2023-08-06T08:12:38;2.17;;;2.03;;
45296;SDS011;31040;51.622;10.420;2023-08-06T08:15:06;2.50;;;2.17;;
45296;SDS011;31040;51.622;10.420;2023-08-06T08:17:34;2.50;;;2.30;;
45296;SDS011;31040;51.622;10.420;2023-08-06T08:20:01;2.70;;;2.40;;
45296;SDS011;31040;51.622;10.420;2023-08-06T08:22:29;4.10;;;3.05;;
45296;SDS011;31040;51.622;10.420;2023-08-06T08:24:56;2.63;;;2.42;;
45296;SDS011;31040;51.622;10.420;2023-08-06T08:27:24;3.00;;;2.25;;
45296;SDS011;31040;51.622;10.420;2023-08-06T08:29:52;2.15;;;2.00;;
45296;SDS011;31040;51.622;10.420;2023-08-06T08:32:19;2.50;;;2.30;;
45296;SDS011;31040;51.622;10.420;2023-08-06T08:34:47;4.35;;;3.63;;
45296;SDS011;31040;51.622;10.420;2023-08-06T08:37:15;3.70;;;3.00;;
45296;SDS011;31040;51.622;10.420;2023-08-06T08:39:42;4.13;;;2.83;;
45296;SDS011;31040;51.622;10.420;2023-08-06T08:42:10;3.13;;;2.65;;
45296;SDS011;31040;51.622;10.420;2023-08-06T08:44:37;2.50;;;2.30;;
45296;SDS011;31040;51.622;10.420;2023-08-06T08:47:09;5.32;;;2.35;;
45296;SDS011;31040;51.622;10.420;2023-08-06T08:49:37;2.53;;;2.33;;
45296;SDS011;31040;51.622;10.420;2023-08-06T08:52:05;2.72;;;2.47;;
45296;SDS011;31040;51.622;10.420;2023-08-06T08:54:33;2.47;;;2.28;;
45296;SDS011;31040;51.622;10.420;2023-08-06T08:57:01;2.70;;;2.50;;
45296;SDS011;31040;51.622;10.420;2023-08-06T08:59:28;3.08;;;2.33;;
45296;SDS011;31040;51.622;10.420;2023-08-06T09:01:56;2.85;;;2.00;;
45296;SDS011;31040;51.622;10.420;2023-08-06T09:04:24;3.75;;;2.30;;
45296;SDS011;31040;51.622;10.420;2023-08-06T09:06:52;2.63;;;2.08;;
45296;SDS011;31040;51.622;10.420;2023-08-06T09:09:43;2.30;;;2.10;;
45296;SDS011;31040;51.622;10.420;2023-08-06T09:12:12;2.30;;;2.10;;
45296;SDS011;31040;51.622;10.420;2023-08-06T09:14:41;2.30;;;2.10;;
45296;SDS011;31040;51.622;10.420;2023-08-06T09:17:09;2.20;;;2.00;;
45296;SDS011;31040;51.622;10.420;2023-08-06T09:19:42;4.57;;;2.53;;
45296;SDS011;31040;51.622;10.420;2023-08-06T09:22:12;1.80;;;1.63;;
45296;SDS011;31040;51.622;10.420;2023-08-06T09:24:43;2.28;;;2.00;;
45296;SDS011;31040;51.622;10.420;2023-08-06T09:27:14;1.73;;;1.63;;
45296;SDS011;31040;51.622;10.420;2023-08-06T09:29:42;1.80;;;1.70;;
45296;SDS011;31040;51.622;10.420;2023-08-06T09:32:09;1.80;;;1.70;;
45296;SDS011;31040;51.622;10.420;2023-08-06T09:34:38;1.80;;;1.70;;
45296;SDS011;31040;51.622;10.420;2023-08-06T09:37:06;1.77;;;1.67;;
45296;SDS011;31040;51.622;10.420;2023-08-06T09:39:35;2.10;;;1.98;;
45296;SDS011;31040;51.622;10.420;2023-08-06T09:42:03;9.02;;;2.22;;
45296;SDS011;31040;51.622;10.420;2023-08-06T09:44:32;1.98;;;1.77;;
45296;SDS011;31040;51.622;10.420;2023-08-06T09:47:01;2.03;;;1.80;;
45296;SDS011;31040;51.622;10.420;2023-08-06T09:49:40;1.67;;;1.58;;
45296;SDS011;31040;51.622;10.420;2023-08-06T09:52:12;2.83;;;2.03;;
45296;SDS011;31040;51.622;10.420;2023-08-06T09:54:40;2.38;;;1.63;;
45296;SDS011;31040;51.622;10.420;2023-08-06T09:57:07;2.75;;;1.60;;
45296;SDS011;31040;51.622;10.420;2023-08-06T09:59:35;2.00;;;1.80;;
45296;SDS011;31040;51.622;10.420;2023-08-06T10:02:06;1.70;;;1.60;;
45296;SDS011;31040;51.622;10.420;2023-08-06T10:04:38;3.60;;;1.65;;
45296;SDS011;31040;51.622;10.420;2023-08-06T10:07:07;2.00;;;1.67;;
45296;SDS011;31040;51.622;10.420;2023-08-06T10:09:34;1.70;;;1.60;;
45296;SDS011;31040;51.622;10.420;2023-08-06T10:12:02;2.45;;;1.52;;
45296;SDS011;31040;51.622;10.420;2023-08-06T10:14:33;1.38;;;1.27;;
45296;SDS011;31040;51.622;10.420;2023-08-06T10:17:02;2.88;;;1.58;;
45296;SDS011;31040;51.622;10.420;2023-08-06T10:19:30;1.55;;;1.23;;
45296;SDS011;31040;51.622;10.420;2023-08-06T10:24:57;1.40;;;1.30;;
45296;SDS011;31040;51.622;10.420;2023-08-06T10:32:48;2.03;;;1.65;;
45296;SDS011;31040;51.622;10.420;2023-08-06T10:38:07;2.15;;;1.02;;
45296;SDS011;31040;51.622;10.420;2023-08-06T10:41:23;1.73;;;1.30;;
45296;SDS011;31040;51.622;10.420;2023-08-06T10:43:31;1.27;;;1.15;;
45296;SDS011;31040;51.622;10.420;2023-08-06T10:45:59;1.23;;;1.13;;
45296;SDS011;31040;51.622;10.420;2023-08-06T10:48:34;1.92;;;1.60;;
45296;SDS011;31040;51.622;10.420;2023-08-06T10:51:09;1.40;;;1.27;;
45296;SDS011;31040;51.622;10.420;2023-08-06T10:53:37;1.42;;;1.20;;
45296;SDS011;31040;51.622;10.420;2023-08-06T10:56:20;4.00;;;1.70;;
45296;SDS011;31040;51.622;10.420;2023-08-06T10:58:55;1.48;;;1.00;;
45296;SDS011;31040;51.622;10.420;2023-08-06T11:01:28;1.65;;;1.25;;
45296;SDS011;31040;51.622;10.420;2023-08-06T11:04:01;1.63;;;1.50;;
45296;SDS011;31040;51.622;10.420;2023-08-06T11:06:29;2.40;;;1.27;;
45296;SDS011;31040;51.622;10.420;2023-08-06T11:08:56;2.22;;;0.95;;
45296;SDS011;31040;51.622;10.420;2023-08-06T11:11:24;1.90;;;1.27;;
45296;SDS011;31040;51.622;10.420;2023-08-06T11:13:51;1.42;;;1.33;;
45296;SDS011;31040;51.622;10.420;2023-08-06T11:16:20;1.88;;;1.38;;
45296;SDS011;31040;51.622;10.420;2023-08-06T11:18:47;1.55;;;1.23;;
45296;SDS011;31040;51.622;10.420;2023-08-06T11:21:18;1.65;;;1.25;;
45296;SDS011;31040;51.622;10.420;2023-08-06T11:23:45;1.48;;;1.38;;
45296;SDS011;31040;51.622;10.420;2023-08-06T11:26:18;1.65;;;1.35;;
45296;SDS011;31040;51.622;10.420;2023-08-06T11:28:45;1.40;;;1.27;;
45296;SDS011;31040;51.622;10.420;2023-08-06T11:31:22;1.50;;;1.20;;
45296;SDS011;31040;51.622;10.420;2023-08-06T11:33:50;1.20;;;1.10;;
45296;SDS011;31040;51.622;10.420;2023-08-06T11:36:28;1.48;;;1.00;;
45296;SDS011;31040;51.622;10.420;2023-08-06T11:38:56;1.63;;;0.98;;
45296;SDS011;31040;51.622;10.420;2023-08-06T11:41:24;1.48;;;1.38;;
45296;SDS011;31040;51.622;10.420;2023-08-06T11:43:51;1.23;;;1.13;;
45296;SDS011;31040;51.622;10.420;2023-08-06T11:46:19;1.08;;;1.00;;
45296;SDS011;31040;51.622;10.420;2023-08-06T11:48:53;3.90;;;1.50;;
45296;SDS011;31040;51.622;10.420;2023-08-06T11:51:26;2.77;;;1.10;;
45296;SDS011;31040;51.622;10.420;2023-08-06T11:53:59;1.80;;;1.02;;
45296;SDS011;31040;51.622;10.420;2023-08-06T11:56:29;1.55;;;1.45;;
45296;SDS011;31040;51.622;10.420;2023-08-06T11:58:56;1.60;;;1.17;;
45296;SDS011;31040;51.622;10.420;2023-08-06T12:01:23;1.30;;;1.20;;
45296;SDS011;31040;51.622;10.420;2023-08-06T12:03:58;1.33;;;1.10;;
45296;SDS011;31040;51.622;10.420;2023-08-06T12:06:28;1.08;;;1.00;;
45296;SDS011;31040;51.622;10.420;2023-08-06T12:08:55;1.15;;;0.95;;
45296;SDS011;31040;51.622;10.420;2023-08-06T12:11:23;1.38;;;1.27;;
45296;SDS011;31040;51.622;10.420;2023-08-06T12:13:51;2.03;;;1.23;;
45296;SDS011;31040;51.622;10.420;2023-08-06T12:16:18;1.48;;;1.20;;
45296;SDS011;31040;51.622;10.420;2023-08-06T12:18:48;1.30;;;1.20;;
45296;SDS011;31040;51.622;10.420;2023-08-06T12:21:15;1.15;;;1.05;;
45296;SDS011;31040;51.622;10.420;2023-08-06T12:23:43;1.38;;;1.10;;
45296;SDS011;31040;51.622;10.420;2023-08-06T12:26:10;1.27;;;1.17;;
45296;SDS011;31040;51.622;10.420;2023-08-06T12:28:38;1.83;;;1.08;;
45296;SDS011;31040;51.622;10.420;2023-08-06T12:31:05;2.65;;;1.52;;
45296;SDS011;31040;51.622;10.420;2023-08-06T12:33:33;1.40;;;1.30;;
45296;SDS011;31040;51.622;10.420;2023-08-06T12:36:01;1.35;;;1.23;;
45296;SDS011;31040;51.622;10.420;2023-08-06T12:38:28;1.88;;;1.20;;
45296;SDS011;31040;51.622;10.420;2023-08-06T12:41:00;1.42;;;1.33;;
45296;SDS011;31040;51.622;10.420;2023-08-06T12:43:27;2.15;;;1.10;;
45296;SDS011;31040;51.622;10.420;2023-08-06T12:45:55;1.10;;;1.00;;
45296;SDS011;31040;51.622;10.420;2023-08-06T12:48:22;1.73;;;1.23;;
45296;SDS011;31040;51.622;10.420;2023-08-06T12:50:50;1.75;;;1.25;;
45296;SDS011;31040;51.622;10.420;2023-08-06T12:53:17;1.20;;;1.10;;
45296;SDS011;31040;51.622;10.420;2023-08-06T12:55:47;1.40;;;1.27;;
45296;SDS011;31040;51.622;10.420;2023-08-06T12:58:14;1.30;;;0.90;;
45296;SDS011;31040;51.622;10.420;2023-08-06T13:00:42;2.05;;;1.00;;
45296;SDS011;31040;51.622;10.420;2023-08-06T13:03:09;1.50;;;1.40;;
45296;SDS011;31040;51.622;10.420;2023-08-06T13:05:37;3.33;;;1.35;;
45296;SDS011;31040;51.622;10.420;2023-08-06T13:08:04;1.27;;;1.17;;
45296;SDS011;31040;51.622;10.420;2023-08-06T13:10:32;1.88;;;1.00;;
45296;SDS011;31040;51.622;10.420;2023-08-06T13:12:59;1.20;;;1.10;;
45296;SDS011;31040;51.622;10.420;2023-08-06T13:15:26;1.10;;;1.00;;
45296;SDS011;31040;51.622;10.420;2023-08-06T13:17:54;1.10;;;1.10;;
45296;SDS011;31040;51.622;10.420;2023-08-06T13:20:21;1.10;;;0.90;;
45296;SDS011;31040;51.622;10.420;2023-08-06T13:22:49;1.55;;;1.00;;
45296;SDS011;31040;51.622;10.420;2023-08-06T13:25:19;1.10;;;0.70;;
45296;SDS011;31040;51.622;10.420;2023-08-06T13:27:47;1.95;;;1.30;;
45296;SDS011;31040;51.622;10.420;2023-08-06T13:30:14;1.77;;;0.82;;
45296;SDS011;31040;51.622;10.420;2023-08-06T13:32:44;0.85;;;0.82;;
45296;SDS011;31040;51.622;10.420;2023-08-06T13:35:11;2.78;;;1.35;;
45296;SDS011;31040;51.622;10.420;2023-08-06T13:37:39;0.98;;;0.88;;
45296;SDS011;31040;51.622;10.420;2023-08-06T13:40:06;0.82;;;0.80;;
45296;SDS011;31040;51.622;10.420;2023-08-06T13:42:35;1.75;;;1.00;;
45296;SDS011;31040;51.622;10.420;2023-08-06T13:45:02;1.00;;;1.00;;
45296;SDS011;31040;51.622;10.420;2023-08-06T13:47:30;0.80;;;0.80;;
45296;SDS011;31040;51.622;10.420;2023-08-06T13:49:58;1.20;;;0.98;;
45296;SDS011;31040;51.622;10.420;2023-08-06T13:52:25;1.88;;;1.30;;
45296;SDS011;31040;51.622;10.420;2023-08-06T13:54:53;1.55;;;1.05;;
45296;SDS011;31040;51.622;10.420;2023-08-06T13:57:20;1.25;;;1.08;;
45296;SDS011;31040;51.622;10.420;2023-08-06T13:59:48;1.00;;;0.93;;
45296;SDS011;31040;51.622;10.420;2023-08-06T14:02:15;1.15;;;1.05;;
45296;SDS011;31040;51.622;10.420;2023-08-06T14:04:43;2.55;;;0.90;;
45296;SDS011;31040;51.622;10.420;2023-08-06T14:07:10;1.40;;;1.30;;
45296;SDS011;31040;51.622;10.420;2023-08-06T14:09:38;1.98;;;1.20;;
45296;SDS011;31040;51.622;10.420;2023-08-06T14:12:06;1.55;;;1.45;;
45296;SDS011;31040;51.622;10.420;2023-08-06T14:14:33;1.33;;;1.23;;
45296;SDS011;31040;51.622;10.420;2023-08-06T14:17:01;1.33;;;1.23;;
45296;SDS011;31040;51.622;10.420;2023-08-06T14:19:29;4.60;;;1.42;;
45296;SDS011;31040;51.622;10.420;2023-08-06T14:21:56;2.42;;;1.90;;
45296;SDS011;31040;51.622;10.420;2023-08-06T14:24:24;2.55;;;1.73;;
45296;SDS011;31040;51.622;10.420;2023-08-06T14:26:51;2.00;;;1.48;;
45296;SDS011;31040;51.622;10.420;2023-08-06T14:29:19;2.80;;;1.50;;
45296;SDS011;31040;51.622;10.420;2023-08-06T14:31:46;3.22;;;2.45;;
45296;SDS011;31040;51.622;10.420;2023-08-06T14:34:14;3.28;;;1.80;;
45296;SDS011;31040;51.622;10.420;2023-08-06T14:36:41;2.80;;;2.10;;
45296;SDS011;31040;51.622;10.420;2023-08-06T14:39:09;2.85;;;1.90;;
45296;SDS011;31040;51.622;10.420;2023-08-06T14:41:36;5.32;;;2.10;;
45296;SDS011;31040;51.622;10.420;2023-08-06T14:44:03;3.72;;;2.67;;
45296;SDS011;31040;51.622;10.420;2023-08-06T14:46:31;3.75;;;2.00;;
45296;SDS011;31040;51.622;10.420;2023-08-06T14:48:58;2.22;;;2.00;;
45296;SDS011;31040;51.622;10.420;2023-08-06T14:51:26;2.20;;;1.90;;
45296;SDS011;31040;51.622;10.420;2023-08-06T14:53:54;2.22;;;2.03;;
45296;SDS011;31040;51.622;10.420;2023-08-06T14:56:21;2.15;;;1.90;;
45296;SDS011;31040;51.622;10.420;2023-08-06T14:58:49;1.95;;;1.70;;